sensor_id;sensor_type;location;lat;lon;timestamp;P1;durP1;ratioP1;P2;durP2;ratioP2
32505;SDS011;18955;51.224;8.482;2023-09-07T00:00:44;7.82;;;3.75;;
32505;SDS011;18955;51.224;8.482;2023-09-07T00:03:13;11.93;;;4.18;;
32505;SDS011;18955;51.224;8.482;2023-09-07T00:05:40;11.40;;;4.57;;
32505;SDS011;18955;51.224;8.482;2023-09-07T00:08:06;7.07;;;3.88;;
32505;SDS011;18955;51.224;8.482;2023-09-07T00:10:32;9.68;;;4.35;;
32505;SDS011;18955;51.224;8.482;2023-09-07T00:13:02;7.50;;;3.97;;
32505;SDS011;18955;51.224;8.482;2023-09-07T00:15:29;16.27;;;4.50;;
32505;SDS011;18955;51.224;8.482;2023-09-07T00:18:00;8.85;;;3.60;;
32505;SDS011;18955;51.224;8.482;2023-09-07T00:20:27;10.00;;;3.72;;
32505;SDS011;18955;51.224;8.482;2023-09-07T00:22:53;5.80;;;4.00;;
32505;SDS011;18955;51.224;8.482;2023-09-07T00:25:19;9.05;;;4.00;;
32505;SDS011;18955;51.224;8.482;2023-09-07T00:27:46;8.82;;;4.10;;
32505;SDS011;18955;51.224;8.482;2023-09-07T00:30:12;8.35;;;4.20;;
32505;SDS011;18955;51.224;8.482;2023-09-07T00:32:38;12.05;;;3.88;;
32505;SDS011;18955;51.224;8.482;2023-09-07T00:35:06;9.25;;;4.10;;
32505;SDS011;18955;51.224;8.482;2023-09-07T00:37:32;14.25;;;4.28;;
32505;SDS011;18955;51.224;8.482;2023-09-07T00:42:25;6.60;;;3.88;;
32505;SDS011;18955;51.224;8.482;2023-09-07T00:44:53;10.52;;;3.85;;
32505;SDS011;18955;51.224;8.482;2023-09-07T00:47:19;9.18;;;3.67;;
32505;SDS011;18955;51.224;8.482;2023-09-07T00:49:46;10.05;;;3.85;;
32505;SDS011;18955;51.224;8.482;2023-09-07T00:52:12;9.27;;;4.13;;
32505;SDS011;18955;51.224;8.482;2023-09-07T00:54:40;4.97;;;4.10;;
32505;SDS011;18955;51.224;8.482;2023-09-07T00:57:07;10.30;;;4.10;;
32505;SDS011;18955;51.224;8.482;2023-09-07T00:59:34;9.20;;;4.10;;
32505;SDS011;18955;51.224;8.482;2023-09-07T01:02:01;6.18;;;3.72;;
32505;SDS011;18955;51.224;8.482;2023-09-07T01:04:27;6.85;;;4.30;;
32505;SDS011;18955;51.224;8.482;2023-09-07T01:06:57;10.52;;;3.75;;
32505;SDS011;18955;51.224;8.482;2023-09-07T01:09:47;9.90;;;4.20;;
32505;SDS011;18955;51.224;8.482;2023-09-07T01:12:17;5.75;;;4.05;;
32505;SDS011;18955;51.224;8.482;2023-09-07T01:14:43;7.45;;;4.65;;
32505;SDS011;18955;51.224;8.482;2023-09-07T01:17:10;10.68;;;4.53;;
32505;SDS011;18955;51.224;8.482;2023-09-07T01:19:37;11.88;;;4.30;;
32505;SDS011;18955;51.224;8.482;2023-09-07T01:22:04;8.27;;;4.32;;
32505;SDS011;18955;51.224;8.482;2023-09-07T01:24:35;11.10;;;4.50;;
32505;SDS011;18955;51.224;8.482;2023-09-07T01:27:03;8.48;;;4.32;;
32505;SDS011;18955;51.224;8.482;2023-09-07T01:29:30;5.55;;;4.10;;
32505;SDS011;18955;51.224;8.482;2023-09-07T01:31:57;10.27;;;4.05;;
32505;SDS011;18955;51.224;8.482;2023-09-07T01:34:23;5.75;;;4.70;;
32505;SDS011;18955;51.224;8.482;2023-09-07T01:36:50;7.30;;;4.45;;
32505;SDS011;18955;51.224;8.482;2023-09-07T01:39:16;6.90;;;4.25;;
32505;SDS011;18955;51.224;8.482;2023-09-07T01:41:43;8.88;;;4.00;;
32505;SDS011;18955;51.224;8.482;2023-09-07T01:44:09;6.80;;;4.40;;
32505;SDS011;18955;51.224;8.482;2023-09-07T01:46:36;9.32;;;4.70;;
32505;SDS011;18955;51.224;8.482;2023-09-07T01:49:02;11.48;;;4.20;;
32505;SDS011;18955;51.224;8.482;2023-09-07T01:51:28;10.77;;;4.05;;
32505;SDS011;18955;51.224;8.482;2023-09-07T01:53:54;6.15;;;3.83;;
32505;SDS011;18955;51.224;8.482;2023-09-07T01:56:21;6.82;;;3.97;;
32505;SDS011;18955;51.224;8.482;2023-09-07T02:01:24;8.43;;;4.45;;
32505;SDS011;18955;51.224;8.482;2023-09-07T02:03:51;7.40;;;4.25;;
32505;SDS011;18955;51.224;8.482;2023-09-07T02:06:18;10.30;;;4.30;;
32505;SDS011;18955;51.224;8.482;2023-09-07T02:08:44;7.70;;;4.05;;
32505;SDS011;18955;51.224;8.482;2023-09-07T02:11:11;8.27;;;4.22;;
32505;SDS011;18955;51.224;8.482;2023-09-07T02:16:06;4.80;;;4.00;;
32505;SDS011;18955;51.224;8.482;2023-09-07T02:18:35;7.90;;;4.55;;
32505;SDS011;18955;51.224;8.482;2023-09-07T02:21:02;8.23;;;4.60;;
32505;SDS011;18955;51.224;8.482;2023-09-07T02:25:56;8.82;;;4.22;;
32505;SDS011;18955;51.224;8.482;2023-09-07T02:30:50;4.97;;;3.67;;
32505;SDS011;18955;51.224;8.482;2023-09-07T02:33:17;7.25;;;4.07;;
32505;SDS011;18955;51.224;8.482;2023-09-07T02:35:43;5.70;;;3.97;;
32505;SDS011;18955;51.224;8.482;2023-09-07T02:38:10;8.02;;;4.22;;
32505;SDS011;18955;51.224;8.482;2023-09-07T02:40:40;8.85;;;4.22;;
32505;SDS011;18955;51.224;8.482;2023-09-07T02:43:08;5.85;;;4.32;;
32505;SDS011;18955;51.224;8.482;2023-09-07T02:45:35;5.25;;;4.25;;
32505;SDS011;18955;51.224;8.482;2023-09-07T02:48:02;9.23;;;4.43;;
32505;SDS011;18955;51.224;8.482;2023-09-07T02:50:30;7.85;;;4.30;;
32505;SDS011;18955;51.224;8.482;2023-09-07T02:52:57;6.93;;;4.20;;
32505;SDS011;18955;51.224;8.482;2023-09-07T02:55:23;7.25;;;4.68;;
32505;SDS011;18955;51.224;8.482;2023-09-07T02:57:50;6.55;;;4.32;;
32505;SDS011;18955;51.224;8.482;2023-09-07T03:00:17;9.32;;;4.85;;
32505;SDS011;18955;51.224;8.482;2023-09-07T03:02:44;8.85;;;4.55;;
32505;SDS011;18955;51.224;8.482;2023-09-07T03:05:11;5.65;;;4.38;;
32505;SDS011;18955;51.224;8.482;2023-09-07T03:07:37;8.05;;;4.32;;
32505;SDS011;18955;51.224;8.482;2023-09-07T03:10:05;5.93;;;4.53;;
32505;SDS011;18955;51.224;8.482;2023-09-07T03:14:57;10.50;;;4.88;;
32505;SDS011;18955;51.224;8.482;2023-09-07T03:17:24;10.45;;;4.13;;
32505;SDS011;18955;51.224;8.482;2023-09-07T03:19:51;6.65;;;4.75;;
32505;SDS011;18955;51.224;8.482;2023-09-07T03:22:19;6.72;;;4.35;;
32505;SDS011;18955;51.224;8.482;2023-09-07T03:24:45;5.57;;;3.22;;
32505;SDS011;18955;51.224;8.482;2023-09-07T03:27:11;12.68;;;4.60;;
32505;SDS011;18955;51.224;8.482;2023-09-07T03:29:38;7.82;;;4.60;;
32505;SDS011;18955;51.224;8.482;2023-09-07T03:32:05;5.38;;;4.38;;
32505;SDS011;18955;51.224;8.482;2023-09-07T03:36:57;6.22;;;3.92;;
32505;SDS011;18955;51.224;8.482;2023-09-07T03:39:24;5.70;;;4.03;;
32505;SDS011;18955;51.224;8.482;2023-09-07T03:41:50;6.57;;;4.82;;
32505;SDS011;18955;51.224;8.482;2023-09-07T03:44:18;7.75;;;4.50;;
32505;SDS011;18955;51.224;8.482;2023-09-07T03:46:44;7.38;;;4.40;;
32505;SDS011;18955;51.224;8.482;2023-09-07T03:49:11;7.45;;;4.60;;
32505;SDS011;18955;51.224;8.482;2023-09-07T03:51:37;8.85;;;4.47;;
32505;SDS011;18955;51.224;8.482;2023-09-07T03:54:03;7.50;;;4.15;;
32505;SDS011;18955;51.224;8.482;2023-09-07T03:56:30;9.98;;;4.32;;
32505;SDS011;18955;51.224;8.482;2023-09-07T03:58:56;5.97;;;4.43;;
32505;SDS011;18955;51.224;8.482;2023-09-07T04:01:22;7.32;;;3.33;;
32505;SDS011;18955;51.224;8.482;2023-09-07T04:03:49;8.65;;;3.72;;
32505;SDS011;18955;51.224;8.482;2023-09-07T04:06:16;10.70;;;3.90;;
32505;SDS011;18955;51.224;8.482;2023-09-07T04:08:42;6.95;;;4.20;;
32505;SDS011;18955;51.224;8.482;2023-09-07T04:11:08;7.00;;;4.22;;
32505;SDS011;18955;51.224;8.482;2023-09-07T04:13:35;8.00;;;4.57;;
32505;SDS011;18955;51.224;8.482;2023-09-07T04:16:01;8.90;;;3.80;;
32505;SDS011;18955;51.224;8.482;2023-09-07T04:18:28;10.88;;;4.43;;
32505;SDS011;18955;51.224;8.482;2023-09-07T04:21:03;16.40;;;4.78;;
32505;SDS011;18955;51.224;8.482;2023-09-07T04:23:31;10.33;;;3.40;;
32505;SDS011;18955;51.224;8.482;2023-09-07T04:26:05;24.13;;;4.55;;
32505;SDS011;18955;51.224;8.482;2023-09-07T04:28:36;15.07;;;5.50;;
32505;SDS011;18955;51.224;8.482;2023-09-07T04:31:03;17.02;;;4.75;;
32505;SDS011;18955;51.224;8.482;2023-09-07T04:33:30;16.23;;;4.47;;
32505;SDS011;18955;51.224;8.482;2023-09-07T04:36:10;11.27;;;4.13;;
32505;SDS011;18955;51.224;8.482;2023-09-07T04:38:38;10.80;;;4.35;;
32505;SDS011;18955;51.224;8.482;2023-09-07T04:41:05;12.80;;;4.40;;
32505;SDS011;18955;51.224;8.482;2023-09-07T04:43:35;10.10;;;4.07;;
32505;SDS011;18955;51.224;8.482;2023-09-07T04:46:02;8.88;;;4.07;;
32505;SDS011;18955;51.224;8.482;2023-09-07T04:48:29;23.42;;;5.15;;
32505;SDS011;18955;51.224;8.482;2023-09-07T04:51:01;17.95;;;4.80;;
32505;SDS011;18955;51.224;8.482;2023-09-07T04:53:30;23.92;;;5.05;;
32505;SDS011;18955;51.224;8.482;2023-09-07T04:55:58;37.10;;;5.53;;
32505;SDS011;18955;51.224;8.482;2023-09-07T04:58:25;37.80;;;5.32;;
32505;SDS011;18955;51.224;8.482;2023-09-07T05:00:51;32.47;;;5.47;;
32505;SDS011;18955;51.224;8.482;2023-09-07T05:03:18;26.98;;;5.85;;
32505;SDS011;18955;51.224;8.482;2023-09-07T05:05:44;19.73;;;5.15;;
32505;SDS011;18955;51.224;8.482;2023-09-07T05:08:16;23.15;;;5.32;;
32505;SDS011;18955;51.224;8.482;2023-09-07T05:10:42;46.83;;;6.68;;
32505;SDS011;18955;51.224;8.482;2023-09-07T05:13:08;39.70;;;5.85;;
32505;SDS011;18955;51.224;8.482;2023-09-07T05:15:35;32.20;;;5.60;;
32505;SDS011;18955;51.224;8.482;2023-09-07T05:18:01;21.27;;;5.72;;
32505;SDS011;18955;51.224;8.482;2023-09-07T05:20:29;45.55;;;7.25;;
32505;SDS011;18955;51.224;8.482;2023-09-07T05:22:56;40.67;;;7.03;;
32505;SDS011;18955;51.224;8.482;2023-09-07T05:25:25;43.00;;;7.53;;
32505;SDS011;18955;51.224;8.482;2023-09-07T05:27:51;57.90;;;9.15;;
32505;SDS011;18955;51.224;8.482;2023-09-07T05:30:17;27.00;;;7.43;;
32505;SDS011;18955;51.224;8.482;2023-09-07T05:32:45;60.38;;;9.82;;
32505;SDS011;18955;51.224;8.482;2023-09-07T05:35:11;38.35;;;9.00;;
32505;SDS011;18955;51.224;8.482;2023-09-07T05:40:05;55.63;;;9.65;;
32505;SDS011;18955;51.224;8.482;2023-09-07T05:42:32;40.38;;;6.78;;
32505;SDS011;18955;51.224;8.482;2023-09-07T05:44:58;30.83;;;6.05;;
32505;SDS011;18955;51.224;8.482;2023-09-07T05:47:24;25.52;;;6.22;;
32505;SDS011;18955;51.224;8.482;2023-09-07T05:49:52;14.23;;;5.93;;
32505;SDS011;18955;51.224;8.482;2023-09-07T05:52:18;25.85;;;5.95;;
32505;SDS011;18955;51.224;8.482;2023-09-07T05:54:44;31.65;;;6.20;;
32505;SDS011;18955;51.224;8.482;2023-09-07T05:57:10;15.52;;;3.88;;
32505;SDS011;18955;51.224;8.482;2023-09-07T05:59:37;30.70;;;5.38;;
32505;SDS011;18955;51.224;8.482;2023-09-07T06:02:03;23.05;;;5.22;;
32505;SDS011;18955;51.224;8.482;2023-09-07T06:04:30;23.98;;;5.40;;
32505;SDS011;18955;51.224;8.482;2023-09-07T06:06:56;42.15;;;11.70;;
32505;SDS011;18955;51.224;8.482;2023-09-07T06:09:23;45.97;;;8.57;;
32505;SDS011;18955;51.224;8.482;2023-09-07T06:11:49;41.50;;;5.78;;
32505;SDS011;18955;51.224;8.482;2023-09-07T06:14:16;55.85;;;7.22;;
32505;SDS011;18955;51.224;8.482;2023-09-07T06:16:42;67.38;;;8.05;;
32505;SDS011;18955;51.224;8.482;2023-09-07T06:19:08;54.40;;;7.35;;
32505;SDS011;18955;51.224;8.482;2023-09-07T06:21:35;58.05;;;7.93;;
32505;SDS011;18955;51.224;8.482;2023-09-07T06:24:01;45.78;;;6.95;;
32505;SDS011;18955;51.224;8.482;2023-09-07T06:28:54;73.85;;;8.35;;
32505;SDS011;18955;51.224;8.482;2023-09-07T06:31:20;62.83;;;8.68;;
32505;SDS011;18955;51.224;8.482;2023-09-07T06:33:48;74.88;;;10.40;;
32505;SDS011;18955;51.224;8.482;2023-09-07T06:36:14;96.28;;;9.75;;
32505;SDS011;18955;51.224;8.482;2023-09-07T06:38:40;101.95;;;10.25;;
32505;SDS011;18955;51.224;8.482;2023-09-07T06:41:07;58.00;;;8.88;;
32505;SDS011;18955;51.224;8.482;2023-09-07T06:43:35;53.75;;;8.73;;
32505;SDS011;18955;51.224;8.482;2023-09-07T06:48:31;44.88;;;7.35;;
32505;SDS011;18955;51.224;8.482;2023-09-07T06:53:30;47.63;;;8.05;;
32505;SDS011;18955;51.224;8.482;2023-09-07T06:55:57;59.60;;;8.05;;
32505;SDS011;18955;51.224;8.482;2023-09-07T06:58:24;58.75;;;9.57;;
32505;SDS011;18955;51.224;8.482;2023-09-07T07:00:50;55.50;;;8.98;;
32505;SDS011;18955;51.224;8.482;2023-09-07T07:03:17;74.97;;;8.77;;
32505;SDS011;18955;51.224;8.482;2023-09-07T07:05:44;70.25;;;9.25;;
32505;SDS011;18955;51.224;8.482;2023-09-07T07:08:10;65.63;;;9.45;;
32505;SDS011;18955;51.224;8.482;2023-09-07T07:10:36;68.72;;;9.55;;
32505;SDS011;18955;51.224;8.482;2023-09-07T07:13:02;51.97;;;10.75;;
32505;SDS011;18955;51.224;8.482;2023-09-07T07:15:29;64.72;;;9.15;;
32505;SDS011;18955;51.224;8.482;2023-09-07T07:17:55;35.42;;;7.20;;
32505;SDS011;18955;51.224;8.482;2023-09-07T07:20:21;15.85;;;7.28;;
32505;SDS011;18955;51.224;8.482;2023-09-07T07:22:47;18.85;;;7.05;;
32505;SDS011;18955;51.224;8.482;2023-09-07T07:25:16;18.00;;;6.18;;
32505;SDS011;18955;51.224;8.482;2023-09-07T07:27:43;14.98;;;6.38;;
32505;SDS011;18955;51.224;8.482;2023-09-07T07:30:10;26.70;;;6.47;;
32505;SDS011;18955;51.224;8.482;2023-09-07T07:32:39;19.02;;;6.07;;
32505;SDS011;18955;51.224;8.482;2023-09-07T07:35:05;20.38;;;5.45;;
32505;SDS011;18955;51.224;8.482;2023-09-07T07:39:58;19.35;;;6.10;;
32505;SDS011;18955;51.224;8.482;2023-09-07T07:42:24;13.30;;;5.97;;
32505;SDS011;18955;51.224;8.482;2023-09-07T07:44:50;7.95;;;4.63;;
32505;SDS011;18955;51.224;8.482;2023-09-07T07:47:17;14.43;;;5.65;;
32505;SDS011;18955;51.224;8.482;2023-09-07T07:49:44;16.63;;;6.15;;
32505;SDS011;18955;51.224;8.482;2023-09-07T07:52:10;8.77;;;5.38;;
32505;SDS011;18955;51.224;8.482;2023-09-07T07:54:36;13.93;;;5.95;;
32505;SDS011;18955;51.224;8.482;2023-09-07T07:57:04;7.05;;;5.55;;
32505;SDS011;18955;51.224;8.482;2023-09-07T08:01:59;8.48;;;5.40;;
32505;SDS011;18955;51.224;8.482;2023-09-07T08:04:25;13.30;;;5.82;;
32505;SDS011;18955;51.224;8.482;2023-09-07T08:06:53;11.85;;;5.55;;
32505;SDS011;18955;51.224;8.482;2023-09-07T08:09:24;18.27;;;5.72;;
32505;SDS011;18955;51.224;8.482;2023-09-07T08:11:50;17.88;;;6.63;;
32505;SDS011;18955;51.224;8.482;2023-09-07T08:14:17;15.05;;;5.78;;
32505;SDS011;18955;51.224;8.482;2023-09-07T08:16:43;10.80;;;6.38;;
32505;SDS011;18955;51.224;8.482;2023-09-07T08:19:09;13.35;;;5.90;;
32505;SDS011;18955;51.224;8.482;2023-09-07T08:21:36;24.73;;;4.88;;
32505;SDS011;18955;51.224;8.482;2023-09-07T08:24:03;20.98;;;6.00;;
32505;SDS011;18955;51.224;8.482;2023-09-07T08:26:30;18.17;;;5.88;;
32505;SDS011;18955;51.224;8.482;2023-09-07T08:28:56;16.90;;;6.13;;
32505;SDS011;18955;51.224;8.482;2023-09-07T08:31:22;15.10;;;4.22;;
32505;SDS011;18955;51.224;8.482;2023-09-07T08:33:49;23.17;;;5.95;;
32505;SDS011;18955;51.224;8.482;2023-09-07T08:36:16;22.42;;;6.10;;
32505;SDS011;18955;51.224;8.482;2023-09-07T08:38:43;21.95;;;6.03;;
32505;SDS011;18955;51.224;8.482;2023-09-07T08:41:09;21.40;;;5.45;;
32505;SDS011;18955;51.224;8.482;2023-09-07T08:43:39;11.65;;;5.63;;
32505;SDS011;18955;51.224;8.482;2023-09-07T08:46:15;18.08;;;5.47;;
32505;SDS011;18955;51.224;8.482;2023-09-07T08:48:46;8.82;;;5.40;;
32505;SDS011;18955;51.224;8.482;2023-09-07T08:51:13;19.55;;;5.20;;
32505;SDS011;18955;51.224;8.482;2023-09-07T08:53:41;8.88;;;4.93;;
32505;SDS011;18955;51.224;8.482;2023-09-07T08:56:12;11.15;;;5.25;;
32505;SDS011;18955;51.224;8.482;2023-09-07T08:58:38;15.70;;;6.25;;
32505;SDS011;18955;51.224;8.482;2023-09-07T09:01:07;20.77;;;6.13;;
32505;SDS011;18955;51.224;8.482;2023-09-07T09:03:35;15.00;;;6.80;;
32505;SDS011;18955;51.224;8.482;2023-09-07T09:06:01;14.20;;;5.97;;
32505;SDS011;18955;51.224;8.482;2023-09-07T09:08:28;17.55;;;5.43;;
32505;SDS011;18955;51.224;8.482;2023-09-07T09:11:02;13.07;;;5.43;;
32505;SDS011;18955;51.224;8.482;2023-09-07T09:13:30;20.73;;;5.47;;
32505;SDS011;18955;51.224;8.482;2023-09-07T09:15:59;10.90;;;5.55;;
32505;SDS011;18955;51.224;8.482;2023-09-07T09:18:27;10.27;;;4.82;;
32505;SDS011;18955;51.224;8.482;2023-09-07T09:20:56;17.77;;;5.70;;
32505;SDS011;18955;51.224;8.482;2023-09-07T09:23:37;16.45;;;5.70;;
32505;SDS011;18955;51.224;8.482;2023-09-07T09:26:03;20.25;;;6.18;;
32505;SDS011;18955;51.224;8.482;2023-09-07T09:28:31;30.85;;;5.90;;
32505;SDS011;18955;51.224;8.482;2023-09-07T09:30:58;18.92;;;5.80;;
32505;SDS011;18955;51.224;8.482;2023-09-07T09:33:30;13.98;;;4.90;;
32505;SDS011;18955;51.224;8.482;2023-09-07T09:35:57;13.85;;;5.15;;
32505;SDS011;18955;51.224;8.482;2023-09-07T09:38:26;16.98;;;5.32;;
32505;SDS011;18955;51.224;8.482;2023-09-07T09:40:52;18.15;;;5.60;;
32505;SDS011;18955;51.224;8.482;2023-09-07T09:45:45;20.02;;;6.07;;
32505;SDS011;18955;51.224;8.482;2023-09-07T09:48:12;12.27;;;5.13;;
32505;SDS011;18955;51.224;8.482;2023-09-07T09:50:40;13.10;;;5.05;;
32505;SDS011;18955;51.224;8.482;2023-09-07T09:53:06;12.45;;;5.00;;
32505;SDS011;18955;51.224;8.482;2023-09-07T09:58:00;15.55;;;4.75;;
32505;SDS011;18955;51.224;8.482;2023-09-07T10:00:29;11.75;;;5.57;;
32505;SDS011;18955;51.224;8.482;2023-09-07T10:03:00;14.93;;;5.03;;
32505;SDS011;18955;51.224;8.482;2023-09-07T10:05:31;12.90;;;5.20;;
32505;SDS011;18955;51.224;8.482;2023-09-07T10:08:00;8.00;;;4.55;;
32505;SDS011;18955;51.224;8.482;2023-09-07T10:10:36;9.60;;;4.90;;
32505;SDS011;18955;51.224;8.482;2023-09-07T10:13:03;13.50;;;4.78;;
32505;SDS011;18955;51.224;8.482;2023-09-07T10:15:30;20.83;;;5.90;;
32505;SDS011;18955;51.224;8.482;2023-09-07T10:18:17;18.73;;;5.65;;
32505;SDS011;18955;51.224;8.482;2023-09-07T10:20:57;21.02;;;5.10;;
32505;SDS011;18955;51.224;8.482;2023-09-07T10:26:13;17.67;;;5.10;;
32505;SDS011;18955;51.224;8.482;2023-09-07T10:28:41;11.82;;;4.72;;
32505;SDS011;18955;51.224;8.482;2023-09-07T10:31:19;10.38;;;4.57;;
32505;SDS011;18955;51.224;8.482;2023-09-07T10:33:45;25.83;;;5.33;;
32505;SDS011;18955;51.224;8.482;2023-09-07T10:38:47;9.65;;;4.68;;
32505;SDS011;18955;51.224;8.482;2023-09-07T10:41:14;9.05;;;4.78;;
32505;SDS011;18955;51.224;8.482;2023-09-07T10:43:47;10.88;;;3.53;;
32505;SDS011;18955;51.224;8.482;2023-09-07T10:46:13;12.15;;;4.25;;
32505;SDS011;18955;51.224;8.482;2023-09-07T10:48:40;11.55;;;4.45;;
32505;SDS011;18955;51.224;8.482;2023-09-07T10:51:06;8.25;;;4.43;;
32505;SDS011;18955;51.224;8.482;2023-09-07T10:53:32;11.77;;;4.45;;
32505;SDS011;18955;51.224;8.482;2023-09-07T10:55:59;11.57;;;4.55;;
32505;SDS011;18955;51.224;8.482;2023-09-07T10:58:32;13.13;;;4.05;;
32505;SDS011;18955;51.224;8.482;2023-09-07T11:01:00;16.27;;;4.80;;
32505;SDS011;18955;51.224;8.482;2023-09-07T11:03:29;8.65;;;3.35;;
32505;SDS011;18955;51.224;8.482;2023-09-07T11:05:56;6.78;;;3.70;;
32505;SDS011;18955;51.224;8.482;2023-09-07T11:08:24;10.10;;;3.72;;
32505;SDS011;18955;51.224;8.482;2023-09-07T11:10:51;6.50;;;3.38;;
32505;SDS011;18955;51.224;8.482;2023-09-07T11:15:43;11.68;;;4.45;;
32505;SDS011;18955;51.224;8.482;2023-09-07T11:18:10;6.00;;;4.22;;
32505;SDS011;18955;51.224;8.482;2023-09-07T11:20:36;5.93;;;3.50;;
32505;SDS011;18955;51.224;8.482;2023-09-07T11:23:05;4.47;;;3.45;;
32505;SDS011;18955;51.224;8.482;2023-09-07T11:25:36;4.13;;;3.47;;
32505;SDS011;18955;51.224;8.482;2023-09-07T11:28:04;6.95;;;3.95;;
32505;SDS011;18955;51.224;8.482;2023-09-07T11:30:31;5.15;;;4.30;;
32505;SDS011;18955;51.224;8.482;2023-09-07T11:33:06;7.57;;;4.25;;
32505;SDS011;18955;51.224;8.482;2023-09-07T11:35:33;6.57;;;3.58;;
32505;SDS011;18955;51.224;8.482;2023-09-07T11:40:27;11.23;;;4.17;;
32505;SDS011;18955;51.224;8.482;2023-09-07T11:42:53;8.07;;;3.60;;
32505;SDS011;18955;51.224;8.482;2023-09-07T11:45:19;8.30;;;4.05;;
32505;SDS011;18955;51.224;8.482;2023-09-07T11:47:46;8.57;;;3.95;;
32505;SDS011;18955;51.224;8.482;2023-09-07T11:50:12;8.82;;;3.88;;
32505;SDS011;18955;51.224;8.482;2023-09-07T11:52:39;10.05;;;4.00;;
32505;SDS011;18955;51.224;8.482;2023-09-07T11:55:05;8.32;;;3.42;;
32505;SDS011;18955;51.224;8.482;2023-09-07T11:57:31;10.70;;;3.97;;
32505;SDS011;18955;51.224;8.482;2023-09-07T11:59:57;5.43;;;3.50;;
32505;SDS011;18955;51.224;8.482;2023-09-07T12:02:24;20.95;;;3.65;;
32505;SDS011;18955;51.224;8.482;2023-09-07T12:04:50;4.28;;;3.50;;
32505;SDS011;18955;51.224;8.482;2023-09-07T12:07:16;4.32;;;3.70;;
32505;SDS011;18955;51.224;8.482;2023-09-07T12:09:42;8.95;;;3.70;;
32505;SDS011;18955;51.224;8.482;2023-09-07T12:12:08;6.43;;;3.40;;
32505;SDS011;18955;51.224;8.482;2023-09-07T12:14:36;9.60;;;4.63;;
32505;SDS011;18955;51.224;8.482;2023-09-07T12:17:02;6.43;;;3.92;;
32505;SDS011;18955;51.224;8.482;2023-09-07T12:19:29;6.97;;;3.65;;
32505;SDS011;18955;51.224;8.482;2023-09-07T12:21:55;7.78;;;4.03;;
32505;SDS011;18955;51.224;8.482;2023-09-07T12:24:21;7.63;;;3.05;;
32505;SDS011;18955;51.224;8.482;2023-09-07T12:26:48;6.00;;;3.53;;
32505;SDS011;18955;51.224;8.482;2023-09-07T12:29:14;6.40;;;3.72;;
32505;SDS011;18955;51.224;8.482;2023-09-07T12:31:40;9.52;;;4.00;;
32505;SDS011;18955;51.224;8.482;2023-09-07T12:34:06;11.93;;;2.88;;
32505;SDS011;18955;51.224;8.482;2023-09-07T12:36:34;4.90;;;3.30;;
32505;SDS011;18955;51.224;8.482;2023-09-07T12:39:00;7.55;;;4.00;;
32505;SDS011;18955;51.224;8.482;2023-09-07T12:43:54;6.97;;;3.50;;
32505;SDS011;18955;51.224;8.482;2023-09-07T12:46:20;6.30;;;3.42;;
32505;SDS011;18955;51.224;8.482;2023-09-07T12:48:46;5.25;;;3.50;;
32505;SDS011;18955;51.224;8.482;2023-09-07T12:51:12;6.60;;;3.67;;
32505;SDS011;18955;51.224;8.482;2023-09-07T12:53:39;5.03;;;3.72;;
32505;SDS011;18955;51.224;8.482;2023-09-07T12:56:06;4.60;;;3.58;;
32505;SDS011;18955;51.224;8.482;2023-09-07T12:58:32;5.60;;;3.75;;
32505;SDS011;18955;51.224;8.482;2023-09-07T13:00:58;4.90;;;4.15;;
32505;SDS011;18955;51.224;8.482;2023-09-07T13:03:24;8.77;;;3.30;;
32505;SDS011;18955;51.224;8.482;2023-09-07T13:05:51;6.55;;;3.60;;
32505;SDS011;18955;51.224;8.482;2023-09-07T13:08:17;6.43;;;3.78;;
32505;SDS011;18955;51.224;8.482;2023-09-07T13:13:10;8.00;;;3.60;;
32505;SDS011;18955;51.224;8.482;2023-09-07T13:15:36;6.40;;;4.00;;
32505;SDS011;18955;51.224;8.482;2023-09-07T13:18:02;7.22;;;3.97;;
32505;SDS011;18955;51.224;8.482;2023-09-07T13:20:28;5.35;;;3.38;;
32505;SDS011;18955;51.224;8.482;2023-09-07T13:22:56;5.70;;;3.72;;
32505;SDS011;18955;51.224;8.482;2023-09-07T13:25:22;5.93;;;3.42;;
32505;SDS011;18955;51.224;8.482;2023-09-07T13:27:48;4.82;;;3.60;;
32505;SDS011;18955;51.224;8.482;2023-09-07T13:30:15;7.25;;;4.10;;
32505;SDS011;18955;51.224;8.482;2023-09-07T13:32:41;8.77;;;3.83;;
32505;SDS011;18955;51.224;8.482;2023-09-07T13:35:07;9.60;;;3.50;;
32505;SDS011;18955;51.224;8.482;2023-09-07T13:37:33;20.63;;;4.13;;
32505;SDS011;18955;51.224;8.482;2023-09-07T13:40:01;8.48;;;4.43;;
32505;SDS011;18955;51.224;8.482;2023-09-07T13:42:28;11.57;;;3.88;;
32505;SDS011;18955;51.224;8.482;2023-09-07T13:47:21;12.77;;;3.25;;
32505;SDS011;18955;51.224;8.482;2023-09-07T13:49:48;18.80;;;3.88;;
32505;SDS011;18955;51.224;8.482;2023-09-07T13:52:14;8.63;;;3.67;;
32505;SDS011;18955;51.224;8.482;2023-09-07T13:54:40;7.57;;;3.10;;
32505;SDS011;18955;51.224;8.482;2023-09-07T13:57:06;8.77;;;3.67;;
32505;SDS011;18955;51.224;8.482;2023-09-07T13:59:33;8.70;;;3.50;;
32505;SDS011;18955;51.224;8.482;2023-09-07T14:02:00;8.43;;;3.58;;
32505;SDS011;18955;51.224;8.482;2023-09-07T14:04:26;8.32;;;3.75;;
32505;SDS011;18955;51.224;8.482;2023-09-07T14:06:53;12.70;;;3.92;;
32505;SDS011;18955;51.224;8.482;2023-09-07T14:09:19;6.78;;;2.92;;
32505;SDS011;18955;51.224;8.482;2023-09-07T14:11:47;6.65;;;3.80;;
32505;SDS011;18955;51.224;8.482;2023-09-07T14:14:13;13.43;;;3.47;;
32505;SDS011;18955;51.224;8.482;2023-09-07T14:16:40;6.25;;;3.30;;
32505;SDS011;18955;51.224;8.482;2023-09-07T14:19:06;7.30;;;3.50;;
32505;SDS011;18955;51.224;8.482;2023-09-07T14:21:32;4.10;;;3.20;;
32505;SDS011;18955;51.224;8.482;2023-09-07T14:23:59;8.77;;;2.90;;
32505;SDS011;18955;51.224;8.482;2023-09-07T14:26:27;4.03;;;2.85;;
32505;SDS011;18955;51.224;8.482;2023-09-07T14:28:53;5.70;;;3.22;;
32505;SDS011;18955;51.224;8.482;2023-09-07T14:31:19;4.15;;;2.95;;
32505;SDS011;18955;51.224;8.482;2023-09-07T14:33:46;9.73;;;3.20;;
32505;SDS011;18955;51.224;8.482;2023-09-07T14:36:12;3.80;;;3.00;;
32505;SDS011;18955;51.224;8.482;2023-09-07T14:38:38;3.45;;;3.10;;
32505;SDS011;18955;51.224;8.482;2023-09-07T14:41:07;9.90;;;2.80;;
32505;SDS011;18955;51.224;8.482;2023-09-07T14:43:37;8.38;;;3.38;;
32505;SDS011;18955;51.224;8.482;2023-09-07T14:46:03;8.52;;;3.22;;
32505;SDS011;18955;51.224;8.482;2023-09-07T14:48:29;5.88;;;2.97;;
32505;SDS011;18955;51.224;8.482;2023-09-07T14:50:55;4.03;;;2.75;;
32505;SDS011;18955;51.224;8.482;2023-09-07T14:53:21;12.15;;;2.55;;
32505;SDS011;18955;51.224;8.482;2023-09-07T14:55:48;8.10;;;3.17;;
32505;SDS011;18955;51.224;8.482;2023-09-07T14:58:14;7.95;;;2.67;;
32505;SDS011;18955;51.224;8.482;2023-09-07T15:00:40;7.47;;;3.17;;
32505;SDS011;18955;51.224;8.482;2023-09-07T15:03:06;7.05;;;3.05;;
32505;SDS011;18955;51.224;8.482;2023-09-07T15:05:33;5.65;;;3.40;;
32505;SDS011;18955;51.224;8.482;2023-09-07T15:07:59;7.30;;;3.40;;
32505;SDS011;18955;51.224;8.482;2023-09-07T15:10:28;4.05;;;3.13;;
32505;SDS011;18955;51.224;8.482;2023-09-07T15:12:54;5.28;;;2.90;;
32505;SDS011;18955;51.224;8.482;2023-09-07T15:15:21;9.13;;;3.13;;
32505;SDS011;18955;51.224;8.482;2023-09-07T15:17:47;5.15;;;2.88;;
32505;SDS011;18955;51.224;8.482;2023-09-07T15:22:40;7.32;;;3.38;;
32505;SDS011;18955;51.224;8.482;2023-09-07T15:25:06;6.97;;;2.80;;
32505;SDS011;18955;51.224;8.482;2023-09-07T15:29:59;3.95;;;3.03;;
32505;SDS011;18955;51.224;8.482;2023-09-07T15:32:25;7.80;;;2.67;;
32505;SDS011;18955;51.224;8.482;2023-09-07T15:34:52;10.55;;;3.67;;
32505;SDS011;18955;51.224;8.482;2023-09-07T15:37:18;11.82;;;3.60;;
32505;SDS011;18955;51.224;8.482;2023-09-07T15:39:44;6.90;;;3.00;;